Date,TemperatureHighF,TemperatureAvgF,TemperatureLowF,DewpointHighF,DewpointAvgF,DewpointLowF,HumidityHigh,HumidityAvg,HumidityLow,PressureMaxIn,PressureMinIn,WindSpeedMaxMPH,WindSpeedAvgMPH,GustSpeedMaxMPH,PrecipitationSumIn
2012-1-1,46,36,28,42,34,28,98,93,83,30.06,29.45,25,4,34,0.19
2012-1-2,40,30,14,35,25,9,94,82,70,29.81,29.45,26,10,38,0.00
2012-1-3,14,4,-4,9,-2,-8,87,75,65,30.27,29.81,16,5,19,0.00
2012-1-4,25,12,-5,20,6,-8,87,80,71,30.26,29.76,15,4,18,0.00
2012-1-5,28,23,12,26,18,9,94,82,55,29.89,29.74,15,4,20,0.00
2012-1-6,24,21,18,22,18,16,94,91,87,29.84,29.59,8,2,10,0.00
2012-1-7,44,31,23,38,29,21,97,90,77,29.95,29.62,15,2,18,0.12
2012-1-8,29,20,10,24,15,8,91,80,70,30.35,29.95,14,4,17,0.00
2012-1-9,39,31,18,31,24,14,86,74,52,30.28,29.78,18,7,24,0.01
2012-1-10,37,32,22,34,28,16,95,86,73,30.03,29.69,16,6,20,0.05
2012-1-11,22,17,13,16,11,8,83,78,69,30.10,29.89,12,6,18,0.00
2012-1-12,32,25,13,31,23,9,97,93,81,29.89,29.35,13,5,16,0.00
2012-1-13,33,26,15,32,25,12,98,96,90,29.65,29.12,17,4,25,0.00
2012-1-14,15,1,-11,13,-2,-14,92,85,81,30.25,29.65,14,4,20,0.00
2012-1-15,6,-7,-17,2,-11,-21,87,84,82,30.61,30.25,9,2,12,0.00
2012-1-16,32,16,-2,29,12,-5,88,81,74,30.60,29.89,10,3,15,0.05
2012-1-17,45,33,28,42,31,27,98,95,79,29.89,29.16,34,4,50,0.36
2012-1-18,16,10,2,6,4,-1,90,75,62,30.21,29.90,19,6,37,0.03
2012-1-19,31,19,5,23,9,1,93,67,30,30.19,29.75,24,6,29,0.00
2012-1-20,25,10,2,23,4,-3,93,74,53,30.33,29.81,17,5,20,0.00
2012-1-21,21,13,2,11,6,0,89,75,65,30.40,30.18,8,2,12,0.00
2012-1-22,27,12,-1,16,6,-4,89,80,60,30.52,30.22,7,1,9,0.04
2012-1-23,48,41,15,46,37,12,97,86,70,30.21,29.63,18,4,31,0.29
2012-1-24,47,37,33,45,32,26,93,83,74,30.06,29.66,22,11,34,0.02
2012-1-25,33,29,25,25,22,19,82,76,73,30.32,30.07,15,5,19,0.00
2012-1-26,32,25,18,26,20,14,93,82,69,30.23,29.75,10,3,13,0.00
2012-1-27,33,32,27,33,30,26,97,96,93,29.80,29.24,15,5,18,0.50
2012-1-28,38,33,26,33,30,25,97,90,73,29.94,29.64,31,6,37,0.12
2012-1-29,36,30,26,27,23,19,93,76,60,29.94,29.76,31,9,40,0.00
2012-1-30,27,22,18,24,16,12,91,75,60,30.22,29.93,13,4,17,0.00
2012-1-31,29,26,24,26,24,21,93,92,89,30.16,29.82,9,4,11,0.00
2012-2-1,45,37,24,44,34,22,98,90,77,30.06,29.71,17,6,22,0.13
2012-2-2,30,23,14,24,18,12,92,82,71,30.35,30.06,12,4,13,0.00
2012-2-3,32,24,13,31,22,10,96,90,75,30.45,30.27,14,4,18,0.00
2012-2-4,32,21,8,30,15,6,96,78,61,30.38,30.20,12,3,19,0.01
2012-2-5,32,19,3,27,14,0,91,82,71,30.25,29.99,18,4,23,0.00
2012-2-6,42,37,32,34,31,27,86,80,71,29.99,29.81,29,10,33,0.01
2012-2-7,35,24,11,30,17,8,90,75,57,30.31,29.91,15,5,22,0.00
2012-2-8,32,21,9,22,13,6,90,75,42,30.32,30.05,16,5,22,0.00
2012-2-9,40,32,25,28,25,21,89,76,54,30.07,29.98,20,8,25,0.00
2012-2-10,34,32,21,29,26,18,92,81,66,30.03,29.88,18,7,21,0.00
2012-2-11,20,11,0,17,6,-5,89,81,66,29.94,29.85,11,5,13,0.00
2012-2-12,16,8,-3,8,1,-7,86,72,56,29.93,29.83,14,5,19,0.00
2012-2-13,35,28,16,28,21,9,86,75,52,29.89,29.78,20,8,26,0.00
2012-2-14,39,32,26,30,23,18,89,69,45,30.00,29.89,17,5,21,0.00
2012-2-15,37,35,33,36,33,30,96,92,86,30.23,30.00,13,4,17,0.05
2012-2-16,44,38,33,38,33,29,94,82,60,30.23,29.79,9,2,16,0.05
2012-2-17,39,37,32,38,31,26,96,80,64,29.93,29.79,21,8,25,0.02
2012-2-18,38,32,27,28,26,22,91,77,63,30.09,29.86,11,4,16,0.00
2012-2-19,30,26,19,22,20,17,92,78,64,30.15,30.07,12,3,15,0.00
2012-2-20,35,24,12,23,17,10,92,75,60,30.31,30.13,10,3,15,0.00
2012-2-21,46,34,21,34,21,16,88,65,29,30.31,29.63,19,5,29,0.00
2012-2-22,44,38,33,38,35,32,97,88,72,29.63,29.40,20,8,27,0.17
2012-2-23,39,34,32,34,31,27,97,90,63,29.73,29.38,11,3,16,0.16
2012-2-24,36,33,28,35,31,27,97,93,76,29.73,29.09,15,3,22,0.16
2012-2-25,35,25,15,33,22,9,97,87,69,30.06,29.07,25,12,29,0.03
2012-2-26,24,16,9,14,6,2,88,67,40,30.44,30.07,13,4,19,0.00
2012-2-27,44,28,10,35,22,6,90,77,52,30.38,29.88,23,5,33,0.16
2012-2-28,35,24,17,31,17,12,89,74,56,30.47,30.09,21,6,25,0.00
2012-2-29,34,26,15,22,19,13,92,76,59,30.37,29.76,14,6,23,0.00
2012-3-1,32,29,24,31,28,22,97,95,92,29.89,29.66,13,5,17,0.05
2012-3-2,38,33,28,35,31,27,97,94,82,29.97,29.54,7,2,9,0.19
2012-3-3,47,40,34,41,33,26,97,77,51,29.53,29.23,39,14,51,0.16
2012-3-4,34,21,7,32,16,1,95,80,68,29.80,29.50,14,6,18,0.00
2012-3-5,19,10,5,8,3,0,89,73,58,30.39,29.81,14,6,18,0.00
2012-3-6,34,18,0,20,7,-3,90,65,40,30.58,30.30,11,2,14,0.00
2012-3-7,61,50,28,36,29,19,71,46,34,30.29,29.95,27,8,35,0.01
2012-3-8,61,52,33,51,41,32,96,70,43,29.94,29.57,27,12,34,0.47
2012-3-9,35,29,22,32,23,17,96,80,62,30.14,29.82,16,4,20,0.02
2012-3-10,31,26,20,25,19,13,94,77,61,30.55,30.15,12,4,17,0.11
2012-3-11,54,41,26,36,27,19,74,57,46,30.30,30.14,19,8,27,0.01
2012-3-12,64,49,32,40,35,28,87,61,36,30.23,29.93,8,2,10,0.00
2012-3-13,63,56,48,53,46,37,95,70,48,29.93,29.76,23,8,28,0.12
2012-3-14,48,43,38,42,38,36,96,82,72,30.23,29.90,10,4,13,0.00
2012-3-15,47,39,32,42,36,31,97,92,74,30.26,30.08,14,6,16,0.23
2012-3-16,46,42,37,45,41,36,98,97,93,30.25,29.98,9,2,11,0.20
2012-3-17,63,48,40,45,41,38,98,79,41,30.31,30.16,9,2,11,0.00
2012-3-18,77,58,39,56,48,38,94,72,45,30.17,30.03,14,3,18,0.00
2012-3-19,77,62,47,60,54,45,97,76,49,30.14,30.05,10,2,12,0.00
2012-3-20,79,62,45,59,54,44,98,76,47,30.24,30.13,13,2,14,0.00
2012-3-21,81,66,49,58,54,48,97,69,36,30.27,30.13,13,4,17,0.00
2012-3-22,76,64,53,59,54,49,89,73,54,30.14,30.05,13,4,20,0.00
2012-3-23,66,56,45,51,40,22,96,58,29,30.21,30.10,13,3,16,0.00
2012-3-24,50,44,40,34,26,20,70,50,35,30.13,29.92,18,6,21,0.00
2012-3-25,52,46,41,46,40,31,93,79,67,29.92,29.70,10,4,13,0.00
2012-3-26,46,32,25,44,15,4,93,51,29,30.26,29.70,25,11,31,0.00
2012-3-27,41,30,18,21,8,4,64,42,22,30.40,29.97,14,4,17,0.00
2012-3-28,61,44,33,44,35,15,93,70,44,30.01,29.42,16,5,21,0.07
2012-3-29,41,38,32,37,32,22,95,79,64,30.05,29.64,14,6,20,0.03
2012-3-30,42,33,24,22,17,12,75,54,29,30.15,30.00,10,3,16,0.00
2012-3-31,50,39,28,28,23,19,82,54,35,30.01,29.87,9,2,16,0.00
2012-4-1,44,35,25,38,30,21,92,84,71,29.88,29.65,13,4,15,0.04
2012-4-5,47,40,34,26,24,23,66,52,42,29.95,29.89,15,6,21,0.00
2012-4-6,50,38,28,25,20,13,76,51,25,30.09,29.95,19,5,24,0.00
2012-4-7,54,43,29,25,19,14,60,40,26,30.14,30.00,17,4,22,0.00
2012-4-8,59,44,25,36,28,22,90,57,32,30.02,29.52,19,6,23,0.00
2012-4-9,47,43,40,42,39,36,95,87,67,29.54,29.45,18,8,26,0.60
2012-4-10,45,41,38,42,39,37,96,94,88,29.72,29.50,15,6,24,0.45
2012-4-11,52,41,33,43,38,33,97,89,61,29.98,29.72,12,3,17,0.06
2012-4-12,54,43,33,38,34,30,95,72,42,30.12,29.99,12,3,18,0.00
2012-4-13,61,46,32,36,32,27,92,61,29,30.20,30.06,17,6,22,0.00
2012-4-14,64,51,39,38,32,25,77,51,28,30.12,29.89,17,6,23,0.00
2012-4-15,62,58,54,58,52,38,96,80,48,29.90,29.83,17,6,24,0.00
2012-4-16,85,72,60,62,59,53,93,67,39,29.86,29.63,22,8,30,0.04
2012-4-17,67,51,36,53,37,25,73,59,48,30.31,29.77,22,12,32,0.00
2012-4-18,54,40,27,33,28,24,92,64,37,30.37,30.06,8,2,12,0.00
2012-4-19,71,53,30,47,38,28,93,62,36,30.07,29.85,22,6,24,0.00
2012-4-20,62,51,44,48,42,39,88,72,56,29.91,29.66,13,5,17,0.00
2012-4-21,44,42,37,42,40,36,96,94,88,29.93,29.65,11,4,15,0.55
2012-4-22,42,38,36,37,36,34,96,90,79,30.00,29.84,20,7,23,0.14
2012-4-23,41,37,33,40,36,32,98,96,93,29.83,29.17,21,8,31,1.18
2012-4-24,46,41,37,40,36,34,98,83,62,29.51,29.18,36,8,39,0.05
2012-4-25,47,40,35,41,37,34,96,87,65,29.87,29.51,18,5,21,0.18
2012-4-26,58,44,30,46,36,28,97,79,38,29.87,29.53,13,3,15,0.18
2012-4-27,41,35,32,40,28,22,95,76,62,30.16,29.61,19,10,28,0.02
2012-4-28,48,37,29,27,21,14,78,55,27,30.26,30.11,14,6,22,0.00
2012-4-29,50,40,27,28,21,15,94,53,25,30.29,30.12,21,6,26,0.00
2012-4-30,59,44,25,38,28,20,90,55,28,30.35,30.00,9,2,16,0.00
2012-5-1,54,50,45,52,47,34,98,92,49,30.05,29.91,7,2,11,0.45
2012-5-2,67,56,45,55,51,44,99,85,59,30.10,29.93,11,3,15,0.34
2012-5-3,64,59,54,60,57,53,98,95,87,30.04,29.87,8,2,13,0.10
2012-5-4,71,62,52,65,59,47,99,89,76,29.99,29.80,16,4,20,0.09
2012-5-5,62,52,41,46,39,26,84,65,26,30.12,30.00,13,5,19,0.01
2012-5-6,64,50,34,39,35,27,94,62,25,30.16,30.07,14,3,16,0.03
2012-5-7,73,57,34,55,37,31,95,55,22,30.10,29.85,14,3,17,0.05
2012-5-8,61,57,55,58,55,53,98,93,80,29.86,29.68,10,4,16,0.09
2012-5-9,66,60,53,58,54,47,97,83,58,29.71,29.55,14,6,19,0.13
2012-5-10,54,46,43,50,43,39,95,89,78,29.75,29.53,14,6,23,0.18
2012-5-11,64,53,39,41,37,30,94,60,29,30.03,29.75,20,6,28,0.11
2012-5-12,75,59,38,49,43,35,93,61,33,30.12,30.03,17,6,25,0.00
2012-5-13,68,59,48,57,51,46,97,78,47,30.15,30.06,9,2,11,0.18
2012-5-14,75,61,41,58,51,40,98,73,46,30.10,29.95,13,3,18,0.00
2012-5-15,72,64,57,64,59,55,95,84,71,30.00,29.83,9,2,16,0.00
2012-5-16,73,61,49,63,54,39,98,79,52,29.95,29.73,17,6,23,0.04
2012-5-17,62,52,37,45,39,35,96,65,38,30.16,29.96,17,5,24,0.00
2012-5-18,70,56,41,47,41,36,84,59,32,30.22,30.09,11,3,14,0.00
2012-5-19,80,63,44,55,48,42,96,64,32,30.15,30.07,8,2,11,0.00
2012-5-20,87,70,50,64,55,48,94,64,32,30.19,30.08,7,1,10,0.00
2012-5-21,82,71,58,71,60,53,90,71,41,30.11,29.92,9,2,13,0.05
2012-5-22,72,66,61,67,64,59,97,93,81,29.92,29.80,8,2,12,0.16
2012-5-23,74,64,56,63,59,55,98,84,63,29.97,29.86,10,3,12,0.00
2012-5-24,83,70,53,70,62,52,99,78,53,30.06,29.96,15,4,21,0.00
2012-5-25,82,74,65,70,65,60,83,72,62,30.03,29.83,19,7,23,0.00
2012-5-26,79,69,55,60,54,45,84,60,43,30.14,29.94,11,3,14,0.00
2012-5-27,76,64,49,58,52,46,96,68,40,30.18,29.97,11,2,13,0.00
2012-5-28,82,66,52,68,57,49,91,74,57,29.98,29.73,10,2,11,0.00
2012-5-29,87,73,58,75,67,54,98,81,63,29.73,29.52,22,6,25,0.27
2012-5-30,76,66,54,61,54,50,96,66,42,29.73,29.63,20,5,21,0.03
2012-5-31,65,56,44,55,50,43,97,80,51,29.99,29.72,12,3,17,0.00
2012-6-1,62,53,40,55,48,40,98,87,62,30.04,29.73,10,2,15,0.23
2012-6-2,62,57,48,58,54,47,97,90,72,29.72,29.63,11,3,17,0.31
2012-6-3,66,58,45,60,54,44,97,87,68,29.70,29.61,9,3,13,0.58
2012-6-4,58,53,46,54,50,45,98,91,79,29.88,29.64,16,5,22,0.04
2012-6-5,71,58,45,55,49,44,98,74,41,29.94,29.87,16,3,19,0.00
2012-6-6,73,62,51,59,54,48,96,76,43,29.95,29.87,10,2,12,0.01
2012-6-7,75,64,52,61,56,51,97,76,50,29.96,29.83,10,3,13,0.00
2012-6-8,74,62,54,62,57,51,97,83,62,29.89,29.71,20,5,22,0.25
2012-6-9,75,64,49,65,58,48,98,84,61,29.93,29.79,9,2,13,0.00
2012-6-10,82,70,55,70,63,54,98,81,56,30.06,29.93,6,1,9,0.00
2012-6-11,90,76,59,76,67,58,98,75,43,30.08,29.94,12,2,20,0.00
2012-6-12,75,69,65,67,64,62,96,84,72,29.94,29.75,14,5,19,0.87
2012-6-13,69,62,50,64,56,48,97,82,58,30.16,29.78,12,4,17,0.00
2012-6-14,74,60,42,55,48,42,98,70,40,30.30,30.16,15,4,19,0.00
2012-6-15,78,63,45,60,52,44,97,72,45,30.31,30.21,10,2,11,0.00
2012-6-16,81,66,48,68,59,47,98,79,53,30.26,30.08,7,1,15,0.00
2012-6-17,84,73,60,68,61,57,93,70,48,30.08,29.88,14,4,17,0.00
2012-6-18,80,72,64,69,62,56,79,71,62,29.96,29.89,14,5,17,0.00
2012-6-19,82,73,63,73,67,59,94,82,72,29.98,29.85,14,5,22,0.04
2012-6-20,90,80,71,79,72,68,90,77,63,29.98,29.85,16,5,19,0.00
2012-6-21,91,80,70,75,68,65,85,69,50,29.86,29.68,16,6,23,0.00
2012-6-22,83,74,63,68,65,60,91,75,51,29.80,29.68,12,4,16,0.00
2012-6-23,79,67,55,64,58,52,98,76,41,29.96,29.80,13,3,14,0.00
2012-6-24,82,64,53,66,58,51,98,83,41,29.96,29.80,15,2,19,0.44
2012-6-25,62,58,53,60,56,51,97,92,78,29.80,29.71,18,5,22,0.10
2012-6-26,65,58,54,60,55,53,97,90,73,29.74,29.66,16,3,19,0.23
2012-6-27,77,65,54,62,55,49,97,74,47,29.74,29.64,16,5,22,0.00
2012-6-28,83,68,49,66,58,48,98,75,44,29.75,29.60,9,2,12,0.00
2012-6-29,85,75,64,72,64,58,96,71,47,29.60,29.50,19,6,26,0.04
2012-6-30,85,74,62,65,61,56,82,63,44,29.65,29.55,21,6,26,0.00
2012-7-1,81,69,58,70,63,57,97,81,56,29.84,29.65,11,2,15,0.04
2012-7-2,83,69,57,68,61,55,98,78,45,29.91,29.83,13,3,17,0.00
2012-7-3,85,69,51,66,60,50,98,75,40,29.94,29.71,11,2,20,0.00
2012-7-4,87,74,68,76,70,62,96,86,67,29.76,29.62,11,4,22,0.29
2012-7-5,79,68,54,67,62,53,98,82,61,29.86,29.75,8,2,11,0.00
2012-7-6,88,74,58,75,67,57,96,78,58,29.87,29.76,13,4,20,0.00
2012-7-7,83,74,67,70,67,64,96,80,54,29.82,29.75,11,3,15,0.01
2012-7-8,79,68,55,66,58,52,98,74,48,29.92,29.80,14,4,18,0.00
2012-7-9,77,63,47,61,52,46,98,71,36,30.01,29.89,15,2,18,0.00
2012-7-10,82,68,52,67,56,50,94,71,39,30.05,29.96,13,2,13,0.07
2012-7-11,85,68,53,64,56,52,98,71,34,30.15,30.05,9,1,12,0.00
2012-7-12,89,71,50,62,56,49,96,64,30,30.13,30.03,12,2,15,0.00
2012-7-13,92,75,56,66,60,54,93,63,31,30.13,30.04,11,3,17,0.00
2012-7-14,93,78,64,73,66,59,87,67,44,30.11,29.99,12,4,16,0.00
2012-7-15,85,75,62,74,68,60,95,80,66,30.04,29.83,10,3,13,0.00
2012-7-16,89,77,67,73,68,61,96,75,41,29.83,29.73,11,4,17,0.00
2012-7-17,95,76,68,74,69,66,97,80,51,29.75,29.47,42,6,43,1.31
2012-7-18,79,69,63,68,63,56,99,82,47,29.90,29.72,12,3,15,0.00
2012-7-19,74,67,52,57,53,50,95,63,46,30.04,29.99,11,3,16,0.00
2012-7-20,77,63,47,59,53,46,98,74,48,30.08,30.00,14,3,15,0.00
2012-7-21,82,68,48,64,56,47,98,70,37,30.07,29.95,9,2,11,0.00
2012-7-22,87,75,64,71,63,57,82,67,49,30.02,29.92,16,5,18,0.00
2012-7-23,90,76,67,74,68,63,95,77,55,29.95,29.58,25,5,25,0.14
2012-7-24,78,71,59,70,63,54,96,76,48,29.82,29.56,23,6,26,0.00
2012-7-25,79,66,50,62,56,49,98,75,43,29.93,29.71,9,2,12,0.00
2012-7-26,68,65,61,66,63,57,98,93,73,29.72,29.54,8,1,9,0.19
2012-7-27,81,69,62,69,65,61,99,86,61,29.89,29.62,9,2,11,0.00
2012-7-28,80,68,57,67,61,56,98,83,60,29.98,29.89,11,2,16,0.00
2012-7-29,84,68,51,64,57,50,99,74,35,30.03,29.95,10,1,14,0.00
2012-7-30,88,72,56,64,59,54,96,68,36,30.03,29.92,10,2,16,0.00
2012-7-31,89,75,61,72,66,59,97,76,46,29.94,29.77,14,4,17,0.00
2012-8-1,80,74,67,71,68,65,94,83,69,29.80,29.75,11,2,17,0.00
2012-8-2,86,75,63,71,65,59,98,73,45,29.83,29.77,15,5,21,0.00
2012-8-3,86,75,64,71,66,62,95,75,50,30.04,29.79,12,3,14,0.00
2012-8-4,97,79,60,75,67,60,98,70,37,30.10,29.96,12,2,17,0.00
2012-8-5,90,78,66,75,70,64,97,78,56,29.99,29.72,22,8,30,0.27
2012-8-6,77,67,57,64,59,56,95,77,54,30.02,29.87,13,4,16,0.00
2012-8-7,84,70,58,65,58,50,95,69,37,29.95,29.86,16,4,21,0.00
2012-8-8,84,70,58,68,62,57,98,78,46,29.94,29.87,7,1,12,0.00
2012-8-9,72,66,58,69,64,56,99,95,84,29.91,29.82,10,2,13,0.34
2012-8-10,74,69,64,72,68,63,99,96,90,29.83,29.72,11,3,14,0.31
2012-8-11,83,71,65,74,69,64,99,93,72,29.84,29.71,14,2,18,0.24
2012-8-12,80,69,61,68,64,59,97,83,60,29.86,29.80,14,4,23,0.00
2012-8-13,81,71,64,70,65,62,96,83,62,29.92,29.84,11,4,15,0.00
2012-8-14,80,70,62,70,64,59,97,83,61,29.91,29.81,10,2,14,0.54
2012-8-15,81,69,60,68,64,59,99,86,57,29.88,29.80,9,2,13,0.05
2012-8-16,83,69,56,69,62,55,99,82,50,29.91,29.78,10,2,14,0.00
2012-8-17,78,69,60,69,61,55,92,75,60,29.79,29.66,16,6,23,0.01
2012-8-18,74,61,52,57,52,46,96,74,41,29.92,29.79,11,3,15,0.00
2012-8-19,77,63,49,60,54,48,97,75,47,29.96,29.84,12,3,14,0.00
2012-8-20,77,63,47,60,53,47,98,75,44,29.88,29.80,11,2,15,0.00
2012-8-21,76,64,50,58,54,49,97,73,46,30.04,29.88,12,3,17,0.00
2012-8-22,80,66,49,60,54,47,95,67,44,30.10,30.01,14,4,21,0.00
2012-8-23,83,71,61,66,59,54,85,67,48,30.08,30.03,16,4,20,0.00
2012-8-24,85,71,55,67,60,53,95,72,42,30.15,30.08,7,1,10,0.00
2012-8-25,90,75,61,67,62,57,95,69,34,30.20,30.13,12,3,16,0.00
2012-8-26,89,75,62,66,61,56,94,64,34,30.24,30.08,11,3,20,0.00
2012-8-27,80,73,68,70,66,60,93,79,67,30.07,29.83,15,4,20,0.02
2012-8-28,77,68,50,68,60,49,96,79,48,29.96,29.77,20,5,21,0.00
2012-8-29,75,59,41,52,47,40,98,69,36,30.04,29.93,10,3,16,0.00
2012-8-30,83,68,54,65,58,51,91,72,51,29.99,29.86,24,8,26,0.00
2012-8-31,81,73,65,71,64,58,97,75,67,29.88,29.75,19,6,28,0.02
2012-9-1,78,66,54,64,58,52,98,79,51,30.09,29.86,9,2,14,0.00
2012-9-2,81,64,49,61,54,48,98,73,41,30.08,30.02,8,1,13,0.00
2012-9-3,88,70,48,66,57,47,97,69,34,30.09,29.95,10,2,17,0.00
2012-9-4,75,69,64,72,66,62,97,90,79,29.97,29.70,12,2,22,1.04
2012-9-5,80,70,63,69,65,62,98,87,60,29.84,29.68,11,2,16,0.49
2012-9-6,83,72,63,71,66,62,98,82,62,29.82,29.73,14,4,21,0.00
2012-9-7,81,68,54,68,60,53,98,78,45,29.90,29.67,8,2,12,0.00
2012-9-8,82,70,56,69,62,50,93,76,50,29.72,29.30,28,8,35,0.33
2012-9-9,68,57,48,53,50,47,97,80,49,29.93,29.72,12,3,26,0.00
2012-9-10,61,53,42,51,48,41,97,84,60,30.12,29.93,12,2,16,0.00
2012-9-11,73,56,38,56,47,37,98,76,43,30.23,30.12,13,3,17,0.00
2012-9-12,80,66,54,59,54,48,89,68,42,30.24,30.16,17,4,21,0.00
2012-9-13,82,69,55,63,57,52,92,69,44,30.24,30.13,16,4,21,0.00
2012-9-14,78,67,58,68,61,57,96,81,66,30.14,29.94,13,3,21,0.67
2012-9-15,64,57,50,57,52,45,95,83,61,30.14,30.01,13,5,16,0.00
2012-9-16,64,51,36,48,43,35,98,77,45,30.13,29.99,10,2,15,0.00
2012-9-17,77,64,50,65,56,46,94,78,47,29.98,29.86,12,4,16,0.00
2012-9-18,70,64,58,67,60,53,96,87,71,29.87,29.32,17,5,25,1.29
2012-9-19,61,50,42,56,43,39,96,79,47,30.17,29.61,14,5,23,0.06
2012-9-20,69,55,41,49,45,38,94,70,44,30.17,29.95,14,3,20,0.00
2012-9-21,68,61,56,62,56,49,97,86,71,29.95,29.87,11,2,13,0.33
2012-9-22,70,61,54,61,57,50,97,89,72,29.87,29.61,22,5,29,0.09
2012-9-23,60,52,44,50,45,41,94,79,53,30.06,29.79,17,5,22,0.00
2012-9-24,60,50,41,48,44,40,97,81,56,30.09,29.93,18,5,25,0.01
2012-9-25,69,59,50,53,46,42,75,64,49,29.95,29.90,18,7,24,0.00
2012-9-26,70,61,53,61,54,46,96,80,56,30.06,29.86,18,6,23,0.22
2012-9-27,59,50,38,51,44,38,98,84,52,30.25,30.05,7,1,12,0.00
2012-9-28,63,50,35,53,45,34,98,83,59,30.20,30.00,5,1,8,0.01
2012-9-29,61,53,48,52,50,47,98,89,69,30.01,29.92,11,3,13,0.00
2012-9-30,53,51,50,52,50,49,98,97,92,29.93,29.64,9,3,10,0.38
2012-10-1,66,56,52,59,54,51,98,91,76,29.87,29.57,12,4,20,0.55
2012-10-2,64,58,53,59,56,52,97,92,79,29.99,29.86,9,2,12,0.02
2012-10-3,69,62,58,63,59,56,97,91,80,30.07,29.98,8,2,10,0.01
2012-10-4,70,64,61,64,60,55,98,87,67,30.08,29.94,12,3,15,0.00
2012-10-5,70,63,57,62,57,52,94,82,72,29.95,29.81,19,7,26,0.00
2012-10-6,61,52,46,52,46,39,97,81,55,29.91,29.71,22,6,28,0.97
2012-10-7,52,45,38,42,38,34,96,80,54,30.06,29.92,11,3,14,0.01
2012-10-8,56,45,36,42,39,32,97,80,43,30.23,30.05,11,2,16,0.00
2012-10-9,60,48,35,44,40,33,96,74,46,30.23,29.97,9,2,14,0.00
2012-10-10,61,52,44,51,46,40,93,81,55,29.96,29.64,20,6,30,0.07
2012-10-11,52,45,39,42,37,32,94,76,48,30.05,29.81,16,7,24,0.00
2012-10-12,48,40,27,45,32,24,93,73,47,30.40,29.89,19,6,25,0.04
2012-10-13,51,38,24,39,30,22,94,74,43,30.43,30.10,15,3,19,0.31
2012-10-14,66,50,41,59,49,39,98,94,74,30.09,29.63,15,3,21,0.48
2012-10-15,67,60,47,58,51,39,84,75,66,29.63,29.45,24,11,35,0.03
2012-10-16,49,43,33,40,37,31,94,79,67,29.87,29.61,16,6,20,0.01
2012-10-17,61,47,31,44,39,30,97,77,47,29.94,29.84,7,1,10,0.00
2012-10-18,72,60,48,51,45,39,94,59,35,29.88,29.78,13,4,21,0.01
2012-10-19,59,55,52,56,52,45,98,93,66,29.87,29.59,12,2,15,0.76
2012-10-20,60,54,47,56,49,43,98,86,63,29.67,29.54,16,5,24,0.30
2012-10-21,55,51,46,47,45,44,93,82,67,29.93,29.65,18,7,26,0.00
2012-10-22,60,52,41,49,45,40,96,80,62,30.06,29.93,15,4,17,0.00
2012-10-23,53,43,35,46,40,34,98,90,70,30.15,30.06,7,1,9,0.00
2012-10-24,55,45,33,42,37,32,97,75,56,30.18,30.09,10,3,13,0.00
2012-10-25,69,55,46,54,45,38,93,72,57,30.15,30.02,7,2,10,0.00
2012-10-26,74,59,42,59,52,42,98,80,58,30.07,29.99,12,3,17,0.00
2012-10-27,60,54,47,52,49,46,97,85,75,30.07,29.94,8,3,11,0.00
2012-10-28,46,45,43,46,44,42,98,97,96,30.06,29.89,9,3,11,0.00
2012-10-29,59,52,43,52,48,42,98,88,75,29.89,29.28,31,10,45,0.01
2012-10-30,70,61,56,58,52,45,95,75,46,29.43,29.26,26,9,36,0.20
2012-10-31,56,48,44,52,45,39,97,90,80,29.44,29.34,13,3,20,0.07
2012-11-1,47,43,40,46,41,39,96,91,84,29.48,29.37,17,4,21,0.23
2012-11-2,40,39,37,39,37,36,96,94,91,29.72,29.48,10,5,14,0.11
2012-11-3,41,38,36,36,34,33,93,86,79,29.97,29.72,14,7,17,0.00
2012-11-4,37,36,34,33,30,27,92,81,69,30.05,29.96,14,4,16,0.00
2012-11-5,35,31,26,29,24,21,91,74,60,30.17,30.05,11,3,15,0.00
2012-11-6,38,27,18,27,21,17,94,78,52,30.23,30.16,7,1,16,0.00
2012-11-7,39,29,18,26,22,15,93,75,49,30.20,30.08,18,4,22,0.00
2012-11-8,40,30,21,30,25,19,94,83,66,30.09,30.01,12,3,14,0.00
2012-11-9,41,33,19,36,28,17,95,83,66,30.15,30.02,8,3,12,0.00
2012-11-10,44,38,30,37,30,25,96,73,49,30.36,30.15,8,2,10,0.00
2012-11-11,70,51,37,54,41,30,96,71,42,30.29,30.17,15,3,22,0.07
2012-11-12,73,64,49,52,46,37,92,53,39,30.18,29.85,28,10,40,0.11
2012-11-13,49,38,24,47,30,22,95,77,51,30.50,30.03,22,6,24,0.27
2012-11-14,42,30,20,32,24,19,96,79,48,30.63,30.50,9,1,12,0.00
2012-11-15,40,29,22,28,24,20,95,82,58,30.53,30.34,10,2,11,0.00
2012-11-16,44,31,17,32,26,15,95,83,56,30.51,30.35,6,1,10,0.00
2012-11-17,44,34,26,34,30,24,97,85,61,30.67,30.50,6,1,7,0.00
2012-11-18,44,30,21,34,26,20,96,85,61,30.70,30.56,7,1,10,0.00
2012-11-19,48,32,20,35,27,18,95,84,60,30.57,30.25,6,1,12,0.01
2012-11-20,44,33,25,34,29,23,96,87,67,30.25,30.14,5,1,6,0.00
2012-11-21,49,33,22,37,28,21,97,86,53,30.25,30.16,7,1,10,0.00
2012-11-22,59,44,26,39,31,25,95,64,34,30.20,29.94,17,4,19,0.00
2012-11-23,59,49,40,45,36,28,90,62,42,29.93,29.54,22,7,29,0.09
2012-11-24,40,33,28,34,25,18,91,73,62,29.78,29.52,23,11,31,0.00
2012-11-25,31,27,23,25,19,15,91,72,55,29.83,29.74,17,6,22,0.01
2012-11-26,31,27,24,30,22,18,95,83,61,30.20,29.80,12,3,15,0.00
2012-11-27,36,28,21,28,23,19,95,82,67,30.28,30.19,7,1,8,0.01
2012-11-28,33,31,25,31,29,22,95,91,82,30.18,30.05,11,4,14,0.00
2012-11-29,37,27,20,33,23,12,94,86,70,30.37,30.06,21,5,24,0.03
2012-11-30,20,15,9,12,8,5,85,76,68,30.56,30.38,11,4,13,0.00
2012-12-1,25,19,12,21,13,6,85,77,73,30.53,30.25,12,5,15,0.00
2012-12-2,52,44,25,48,40,21,97,86,71,30.25,29.85,14,6,22,0.31
2012-12-3,49,40,34,48,37,33,96,89,82,30.23,29.93,13,3,18,0.01
2012-12-4,68,52,33,56,48,32,98,87,64,30.14,29.80,17,6,25,0.68
2012-12-5,49,36,26,47,29,19,94,76,60,30.31,29.81,20,8,25,0.08
2012-12-6,33,26,19,23,20,16,89,77,58,30.42,30.08,8,2,10,0.00
2012-12-7,44,37,26,34,28,21,88,72,55,30.08,29.95,10,2,16,0.00
2012-12-8,38,37,36,37,36,34,97,94,85,30.03,29.74,14,2,18,0.15
2012-12-9,36,28,25,35,25,22,96,90,86,30.36,29.93,13,5,18,0.00
2012-12-10,51,38,30,50,37,28,98,97,91,29.92,29.43,18,6,26,0.67
2012-12-11,30,19,12,28,16,10,94,86,77,30.20,29.66,12,4,18,0.00
2012-12-12,38,27,12,33,24,9,96,89,77,30.39,30.20,13,3,19,0.01
2012-12-13,42,32,21,34,28,19,96,85,69,30.43,30.15,13,4,18,0.01
2012-12-14,41,37,28,34,29,23,83,72,67,30.28,30.07,13,6,17,0.00
2012-12-15,28,22,17,23,16,11,90,79,63,30.39,30.20,12,5,17,0.00
2012-12-16,33,23,17,31,19,11,93,84,75,30.19,29.84,17,7,18,0.00
2012-12-17,42,37,33,41,36,31,98,94,86,29.84,29.67,7,2,8,0.22
2012-12-18,37,35,33,36,34,32,97,97,93,29.66,29.43,12,4,16,0.86
2012-12-19,35,33,29,34,31,26,98,94,85,30.16,29.58,11,5,15,0.12
2012-12-20,36,28,21,34,25,19,95,88,74,30.24,29.66,12,3,15,0.01
2012-12-21,38,34,33,36,33,32,98,96,90,29.64,28.99,19,5,22,0.90
2012-12-22,33,24,18,32,22,15,98,92,83,29.80,29.05,24,6,29,0.01
2012-12-23,28,22,17,26,19,14,94,90,86,29.94,29.71,9,3,14,0.00
2012-12-24,27,21,14,22,18,11,94,89,79,30.09,29.94,7,2,8,0.00
2012-12-25,20,17,7,18,14,5,93,89,78,30.40,30.01,11,3,13,0.00
2012-12-26,17,9,-1,15,6,-4,91,89,87,30.42,30.00,19,4,23,0.00
2012-12-27,25,21,15,24,19,13,96,94,91,29.99,29.74,17,7,24,0.00
2012-12-28,25,19,10,24,17,8,96,92,88,30.11,29.94,10,4,13,0.00
2012-12-29,20,16,10,18,14,8,94,93,91,30.06,29.71,10,3,12,0.00
2012-12-30,17,12,9,15,10,7,93,91,89,30.18,29.76,14,5,18,0.00
2012-12-31,33,27,17,31,25,15,94,92,89,30.12,29.69,27,7,36,0.00
2013-1-1,32,13,-1,30,8,-4,95,80,69,29.98,29.70,17,6,27,0.00